sensor_id;sensor_type;location;lat;lon;timestamp;P1;durP1;ratioP1;P2;durP2;ratioP2
52786;SDS011;38661;53.152;5.846;2023-02-28T00:00:19;7.07;;;3.17;;
52786;SDS011;38661;53.152;5.846;2023-02-28T00:02:46;7.72;;;3.05;;
52786;SDS011;38661;53.152;5.846;2023-02-28T00:05:13;11.98;;;3.83;;
52786;SDS011;38661;53.152;5.846;2023-02-28T00:07:41;13.25;;;3.70;;
52786;SDS011;38661;53.152;5.846;2023-02-28T00:10:08;8.98;;;3.00;;
52786;SDS011;38661;53.152;5.846;2023-02-28T00:12:35;10.52;;;3.38;;
52786;SDS011;38661;53.152;5.846;2023-02-28T00:15:02;11.02;;;3.58;;
52786;SDS011;38661;53.152;5.846;2023-02-28T00:17:30;9.57;;;3.60;;
52786;SDS011;38661;53.152;5.846;2023-02-28T00:19:56;11.68;;;3.60;;
52786;SDS011;38661;53.152;5.846;2023-02-28T00:22:30;7.82;;;3.38;;
52786;SDS011;38661;53.152;5.846;2023-02-28T00:24:56;10.15;;;3.47;;
52786;SDS011;38661;53.152;5.846;2023-02-28T00:27:21;15.43;;;4.05;;
52786;SDS011;38661;53.152;5.846;2023-02-28T00:29:47;9.77;;;3.63;;
52786;SDS011;38661;53.152;5.846;2023-02-28T00:32:13;8.88;;;3.85;;
52786;SDS011;38661;53.152;5.846;2023-02-28T00:34:39;9.25;;;3.45;;
52786;SDS011;38661;53.152;5.846;2023-02-28T00:37:05;9.60;;;3.20;;
52786;SDS011;38661;53.152;5.846;2023-02-28T00:39:33;11.23;;;3.25;;
52786;SDS011;38661;53.152;5.846;2023-02-28T00:41:59;12.02;;;3.80;;
52786;SDS011;38661;53.152;5.846;2023-02-28T00:44:25;6.57;;;2.45;;
52786;SDS011;38661;53.152;5.846;2023-02-28T00:46:50;8.52;;;3.33;;
52786;SDS011;38661;53.152;5.846;2023-02-28T00:49:17;10.20;;;3.20;;
52786;SDS011;38661;53.152;5.846;2023-02-28T00:51:42;9.18;;;3.33;;
52786;SDS011;38661;53.152;5.846;2023-02-28T00:54:08;11.00;;;3.38;;
52786;SDS011;38661;53.152;5.846;2023-02-28T00:56:34;9.80;;;3.08;;
52786;SDS011;38661;53.152;5.846;2023-02-28T00:58:59;8.73;;;2.95;;
52786;SDS011;38661;53.152;5.846;2023-02-28T01:01:25;10.13;;;2.90;;
52786;SDS011;38661;53.152;5.846;2023-02-28T01:03:51;6.30;;;3.15;;
52786;SDS011;38661;53.152;5.846;2023-02-28T01:06:16;6.88;;;2.90;;
52786;SDS011;38661;53.152;5.846;2023-02-28T01:08:42;11.70;;;4.03;;
52786;SDS011;38661;53.152;5.846;2023-02-28T01:11:08;7.63;;;2.80;;
52786;SDS011;38661;53.152;5.846;2023-02-28T01:13:35;11.18;;;2.63;;
52786;SDS011;38661;53.152;5.846;2023-02-28T01:16:01;9.80;;;2.70;;
52786;SDS011;38661;53.152;5.846;2023-02-28T01:18:27;13.75;;;3.10;;
52786;SDS011;38661;53.152;5.846;2023-02-28T01:20:53;7.13;;;2.85;;
52786;SDS011;38661;53.152;5.846;2023-02-28T01:23:20;6.43;;;2.90;;
52786;SDS011;38661;53.152;5.846;2023-02-28T01:25:47;8.77;;;3.20;;
52786;SDS011;38661;53.152;5.846;2023-02-28T01:28:12;7.45;;;2.50;;
52786;SDS011;38661;53.152;5.846;2023-02-28T01:30:38;11.40;;;3.05;;
52786;SDS011;38661;53.152;5.846;2023-02-28T01:33:04;8.68;;;2.53;;
52786;SDS011;38661;53.152;5.846;2023-02-28T01:35:32;12.00;;;3.00;;
52786;SDS011;38661;53.152;5.846;2023-02-28T01:38:01;9.57;;;2.95;;
52786;SDS011;38661;53.152;5.846;2023-02-28T01:40:27;8.80;;;2.67;;
52786;SDS011;38661;53.152;5.846;2023-02-28T01:42:53;15.52;;;3.30;;
52786;SDS011;38661;53.152;5.846;2023-02-28T01:47:52;12.20;;;3.58;;
52786;SDS011;38661;53.152;5.846;2023-02-28T01:50:23;8.93;;;2.85;;
52786;SDS011;38661;53.152;5.846;2023-02-28T01:52:53;11.82;;;4.68;;
52786;SDS011;38661;53.152;5.846;2023-02-28T01:55:23;5.55;;;2.38;;
52786;SDS011;38661;53.152;5.846;2023-02-28T01:57:54;8.05;;;2.92;;
52786;SDS011;38661;53.152;5.846;2023-02-28T02:00:23;5.45;;;2.72;;
52786;SDS011;38661;53.152;5.846;2023-02-28T02:02:56;13.75;;;3.60;;
52786;SDS011;38661;53.152;5.846;2023-02-28T02:05:30;8.25;;;3.50;;
52786;SDS011;38661;53.152;5.846;2023-02-28T02:08:12;10.52;;;3.30;;
52786;SDS011;38661;53.152;5.846;2023-02-28T02:18:58;7.72;;;3.25;;
52786;SDS011;38661;53.152;5.846;2023-02-28T02:40:48;12.65;;;4.57;;
52786;SDS011;38661;53.152;5.846;2023-02-28T02:43:17;9.55;;;4.70;;
52786;SDS011;38661;53.152;5.846;2023-02-28T02:45:52;9.45;;;4.47;;
52786;SDS011;38661;53.152;5.846;2023-02-28T02:48:24;8.80;;;5.13;;
52786;SDS011;38661;53.152;5.846;2023-02-28T02:50:54;8.43;;;4.47;;
52786;SDS011;38661;53.152;5.846;2023-02-28T02:53:24;13.18;;;5.10;;
52786;SDS011;38661;53.152;5.846;2023-02-28T02:56:00;9.38;;;4.43;;
52786;SDS011;38661;53.152;5.846;2023-02-28T02:58:30;11.38;;;4.00;;
52786;SDS011;38661;53.152;5.846;2023-02-28T03:01:00;11.98;;;4.55;;
52786;SDS011;38661;53.152;5.846;2023-02-28T03:03:27;10.32;;;3.65;;
52786;SDS011;38661;53.152;5.846;2023-02-28T03:05:59;11.23;;;4.07;;
52786;SDS011;38661;53.152;5.846;2023-02-28T03:08:26;12.65;;;3.85;;
52786;SDS011;38661;53.152;5.846;2023-02-28T03:11:00;8.38;;;3.63;;
52786;SDS011;38661;53.152;5.846;2023-02-28T03:24:54;9.93;;;3.72;;
52786;SDS011;38661;53.152;5.846;2023-02-28T03:27:28;8.50;;;3.38;;
52786;SDS011;38661;53.152;5.846;2023-02-28T03:32:58;11.25;;;3.42;;
52786;SDS011;38661;53.152;5.846;2023-02-28T03:35:43;6.15;;;3.45;;
52786;SDS011;38661;53.152;5.846;2023-02-28T03:40:55;10.30;;;3.55;;
52786;SDS011;38661;53.152;5.846;2023-02-28T03:43:27;7.35;;;3.30;;
52786;SDS011;38661;53.152;5.846;2023-02-28T03:45:57;9.13;;;3.20;;
52786;SDS011;38661;53.152;5.846;2023-02-28T03:48:41;5.97;;;2.88;;
52786;SDS011;38661;53.152;5.846;2023-02-28T03:51:18;13.25;;;4.05;;
52786;SDS011;38661;53.152;5.846;2023-02-28T03:53:49;7.90;;;3.05;;
52786;SDS011;38661;53.152;5.846;2023-02-28T03:56:27;6.07;;;2.78;;
52786;SDS011;38661;53.152;5.846;2023-02-28T03:59:59;7.72;;;2.70;;
52786;SDS011;38661;53.152;5.846;2023-02-28T04:04:20;7.35;;;3.00;;
52786;SDS011;38661;53.152;5.846;2023-02-28T04:06:46;9.05;;;3.20;;
52786;SDS011;38661;53.152;5.846;2023-02-28T04:09:15;7.28;;;2.35;;
52786;SDS011;38661;53.152;5.846;2023-02-28T04:11:51;7.55;;;2.55;;
52786;SDS011;38661;53.152;5.846;2023-02-28T04:14:17;7.55;;;2.65;;
52786;SDS011;38661;53.152;5.846;2023-02-28T04:16:44;8.07;;;2.67;;
52786;SDS011;38661;53.152;5.846;2023-02-28T04:19:10;6.72;;;3.08;;
52786;SDS011;38661;53.152;5.846;2023-02-28T04:21:40;11.65;;;2.90;;
52786;SDS011;38661;53.152;5.846;2023-02-28T04:24:09;7.43;;;2.70;;
52786;SDS011;38661;53.152;5.846;2023-02-28T04:26:39;6.40;;;2.65;;
52786;SDS011;38661;53.152;5.846;2023-02-28T04:29:08;6.75;;;2.47;;
52786;SDS011;38661;53.152;5.846;2023-02-28T04:31:36;9.35;;;2.63;;
52786;SDS011;38661;53.152;5.846;2023-02-28T04:34:02;7.50;;;2.20;;
52786;SDS011;38661;53.152;5.846;2023-02-28T04:36:28;5.20;;;2.97;;
52786;SDS011;38661;53.152;5.846;2023-02-28T04:38:54;5.45;;;2.10;;
52786;SDS011;38661;53.152;5.846;2023-02-28T04:41:20;6.03;;;2.50;;
52786;SDS011;38661;53.152;5.846;2023-02-28T04:43:46;6.10;;;2.30;;
52786;SDS011;38661;53.152;5.846;2023-02-28T04:46:12;4.10;;;2.33;;
52786;SDS011;38661;53.152;5.846;2023-02-28T04:48:38;5.28;;;2.38;;
52786;SDS011;38661;53.152;5.846;2023-02-28T04:51:05;8.70;;;2.17;;
52786;SDS011;38661;53.152;5.846;2023-02-28T04:53:33;10.15;;;2.72;;
52786;SDS011;38661;53.152;5.846;2023-02-28T04:56:00;6.45;;;2.00;;
52786;SDS011;38661;53.152;5.846;2023-02-28T04:58:26;9.05;;;3.45;;
52786;SDS011;38661;53.152;5.846;2023-02-28T05:00:53;9.30;;;3.03;;
52786;SDS011;38661;53.152;5.846;2023-02-28T05:03:19;12.10;;;2.97;;
52786;SDS011;38661;53.152;5.846;2023-02-28T05:05:47;8.05;;;2.75;;
52786;SDS011;38661;53.152;5.846;2023-02-28T05:08:13;6.65;;;2.83;;
52786;SDS011;38661;53.152;5.846;2023-02-28T05:10:39;11.23;;;3.00;;
52786;SDS011;38661;53.152;5.846;2023-02-28T05:13:05;9.55;;;2.65;;
52786;SDS011;38661;53.152;5.846;2023-02-28T05:15:30;7.80;;;3.33;;
52786;SDS011;38661;53.152;5.846;2023-02-28T05:17:56;7.47;;;3.35;;
52786;SDS011;38661;53.152;5.846;2023-02-28T05:20:22;8.77;;;2.92;;
52786;SDS011;38661;53.152;5.846;2023-02-28T05:22:47;8.68;;;2.45;;
52786;SDS011;38661;53.152;5.846;2023-02-28T05:25:18;7.18;;;3.25;;
52786;SDS011;38661;53.152;5.846;2023-02-28T05:27:47;7.10;;;3.03;;
52786;SDS011;38661;53.152;5.846;2023-02-28T05:30:12;9.32;;;3.28;;
52786;SDS011;38661;53.152;5.846;2023-02-28T05:32:39;8.93;;;3.20;;
52786;SDS011;38661;53.152;5.846;2023-02-28T05:35:11;7.90;;;3.10;;
52786;SDS011;38661;53.152;5.846;2023-02-28T05:37:38;6.70;;;3.40;;
52786;SDS011;38661;53.152;5.846;2023-02-28T05:40:04;6.05;;;3.22;;
52786;SDS011;38661;53.152;5.846;2023-02-28T05:42:32;8.38;;;4.22;;
52786;SDS011;38661;53.152;5.846;2023-02-28T05:44:58;6.55;;;5.20;;
52786;SDS011;38661;53.152;5.846;2023-02-28T05:47:24;7.90;;;6.25;;
52786;SDS011;38661;53.152;5.846;2023-02-28T05:49:50;11.63;;;6.35;;
52786;SDS011;38661;53.152;5.846;2023-02-28T05:52:15;9.48;;;7.53;;
52786;SDS011;38661;53.152;5.846;2023-02-28T05:54:41;12.50;;;7.38;;
52786;SDS011;38661;53.152;5.846;2023-02-28T05:57:07;9.60;;;6.90;;
52786;SDS011;38661;53.152;5.846;2023-02-28T05:59:32;10.25;;;8.18;;
52786;SDS011;38661;53.152;5.846;2023-02-28T06:01:58;11.88;;;10.57;;
52786;SDS011;38661;53.152;5.846;2023-02-28T06:04:24;13.35;;;8.80;;
52786;SDS011;38661;53.152;5.846;2023-02-28T06:06:50;9.45;;;6.50;;
52786;SDS011;38661;53.152;5.846;2023-02-28T06:09:16;9.25;;;7.30;;
52786;SDS011;38661;53.152;5.846;2023-02-28T06:11:44;8.70;;;6.60;;
52786;SDS011;38661;53.152;5.846;2023-02-28T06:14:19;8.57;;;5.65;;
52786;SDS011;38661;53.152;5.846;2023-02-28T06:16:45;7.85;;;5.85;;
52786;SDS011;38661;53.152;5.846;2023-02-28T06:19:11;7.57;;;5.82;;
52786;SDS011;38661;53.152;5.846;2023-02-28T06:21:37;7.30;;;5.47;;
52786;SDS011;38661;53.152;5.846;2023-02-28T06:24:03;8.25;;;5.75;;
52786;SDS011;38661;53.152;5.846;2023-02-28T06:26:30;8.40;;;6.25;;
52786;SDS011;38661;53.152;5.846;2023-02-28T06:28:55;9.60;;;6.00;;
52786;SDS011;38661;53.152;5.846;2023-02-28T06:31:21;8.00;;;5.57;;
52786;SDS011;38661;53.152;5.846;2023-02-28T06:33:48;8.18;;;6.63;;
52786;SDS011;38661;53.152;5.846;2023-02-28T06:36:16;9.35;;;6.97;;
52786;SDS011;38661;53.152;5.846;2023-02-28T06:38:41;9.70;;;7.97;;
52786;SDS011;38661;53.152;5.846;2023-02-28T06:41:08;8.93;;;7.30;;
52786;SDS011;38661;53.152;5.846;2023-02-28T06:43:39;9.40;;;7.78;;
52786;SDS011;38661;53.152;5.846;2023-02-28T06:46:08;8.98;;;6.88;;
52786;SDS011;38661;53.152;5.846;2023-02-28T06:48:36;10.45;;;7.90;;
52786;SDS011;38661;53.152;5.846;2023-02-28T06:51:03;13.05;;;8.98;;
52786;SDS011;38661;53.152;5.846;2023-02-28T06:53:36;11.60;;;8.65;;
52786;SDS011;38661;53.152;5.846;2023-02-28T06:56:05;13.82;;;9.60;;
52786;SDS011;38661;53.152;5.846;2023-02-28T06:58:32;12.95;;;8.65;;
52786;SDS011;38661;53.152;5.846;2023-02-28T07:00:59;14.88;;;11.60;;
52786;SDS011;38661;53.152;5.846;2023-02-28T07:03:25;13.45;;;9.70;;
52786;SDS011;38661;53.152;5.846;2023-02-28T07:05:50;17.85;;;10.15;;
52786;SDS011;38661;53.152;5.846;2023-02-28T07:08:16;15.63;;;11.65;;
52786;SDS011;38661;53.152;5.846;2023-02-28T07:10:42;12.95;;;9.55;;
52786;SDS011;38661;53.152;5.846;2023-02-28T07:13:08;15.60;;;10.52;;
52786;SDS011;38661;53.152;5.846;2023-02-28T07:15:38;14.38;;;10.60;;
52786;SDS011;38661;53.152;5.846;2023-02-28T07:18:04;15.77;;;10.25;;
52786;SDS011;38661;53.152;5.846;2023-02-28T07:20:29;15.07;;;9.85;;
52786;SDS011;38661;53.152;5.846;2023-02-28T07:22:55;15.63;;;11.35;;
52786;SDS011;38661;53.152;5.846;2023-02-28T07:25:22;16.02;;;11.35;;
52786;SDS011;38661;53.152;5.846;2023-02-28T07:27:48;17.75;;;12.90;;
52786;SDS011;38661;53.152;5.846;2023-02-28T07:30:14;19.13;;;13.13;;
52786;SDS011;38661;53.152;5.846;2023-02-28T07:32:40;20.02;;;14.00;;
52786;SDS011;38661;53.152;5.846;2023-02-28T07:35:06;19.08;;;12.77;;
52786;SDS011;38661;53.152;5.846;2023-02-28T07:37:32;18.92;;;12.85;;
52786;SDS011;38661;53.152;5.846;2023-02-28T07:40:02;20.33;;;13.90;;
52786;SDS011;38661;53.152;5.846;2023-02-28T07:42:31;19.55;;;13.30;;
52786;SDS011;38661;53.152;5.846;2023-02-28T07:44:57;22.38;;;13.98;;
52786;SDS011;38661;53.152;5.846;2023-02-28T07:47:24;19.83;;;13.60;;
52786;SDS011;38661;53.152;5.846;2023-02-28T07:49:49;22.25;;;15.57;;
52786;SDS011;38661;53.152;5.846;2023-02-28T07:52:15;21.80;;;14.10;;
52786;SDS011;38661;53.152;5.846;2023-02-28T07:54:41;24.13;;;15.80;;
52786;SDS011;38661;53.152;5.846;2023-02-28T07:57:07;28.52;;;19.45;;
52786;SDS011;38661;53.152;5.846;2023-02-28T07:59:32;23.77;;;15.95;;
52786;SDS011;38661;53.152;5.846;2023-02-28T08:01:58;25.67;;;16.90;;
52786;SDS011;38661;53.152;5.846;2023-02-28T08:04:24;26.02;;;16.27;;
52786;SDS011;38661;53.152;5.846;2023-02-28T08:06:50;18.85;;;13.25;;
52786;SDS011;38661;53.152;5.846;2023-02-28T08:09:18;21.83;;;13.75;;
52786;SDS011;38661;53.152;5.846;2023-02-28T08:11:44;19.90;;;14.15;;
52786;SDS011;38661;53.152;5.846;2023-02-28T08:14:09;21.63;;;15.10;;
52786;SDS011;38661;53.152;5.846;2023-02-28T08:16:35;24.17;;;15.23;;
52786;SDS011;38661;53.152;5.846;2023-02-28T08:19:02;24.00;;;16.17;;
52786;SDS011;38661;53.152;5.846;2023-02-28T08:21:27;21.73;;;15.77;;
52786;SDS011;38661;53.152;5.846;2023-02-28T08:23:53;19.27;;;15.15;;
52786;SDS011;38661;53.152;5.846;2023-02-28T08:26:19;21.63;;;15.02;;
52786;SDS011;38661;53.152;5.846;2023-02-28T08:28:46;20.35;;;14.52;;
52786;SDS011;38661;53.152;5.846;2023-02-28T08:31:12;20.02;;;13.57;;
52786;SDS011;38661;53.152;5.846;2023-02-28T08:33:40;18.38;;;13.60;;
52786;SDS011;38661;53.152;5.846;2023-02-28T08:36:06;26.75;;;17.30;;
52786;SDS011;38661;53.152;5.846;2023-02-28T08:38:33;18.90;;;13.85;;
52786;SDS011;38661;53.152;5.846;2023-02-28T08:41:00;20.48;;;15.25;;
52786;SDS011;38661;53.152;5.846;2023-02-28T08:43:28;20.05;;;14.68;;
52786;SDS011;38661;53.152;5.846;2023-02-28T08:45:55;20.73;;;14.57;;
52786;SDS011;38661;53.152;5.846;2023-02-28T08:48:24;21.80;;;14.65;;
52786;SDS011;38661;53.152;5.846;2023-02-28T08:50:58;18.77;;;13.38;;
52786;SDS011;38661;53.152;5.846;2023-02-28T08:53:25;19.38;;;14.20;;
52786;SDS011;38661;53.152;5.846;2023-02-28T08:55:55;23.13;;;15.63;;
52786;SDS011;38661;53.152;5.846;2023-02-28T08:58:25;19.77;;;14.25;;
52786;SDS011;38661;53.152;5.846;2023-02-28T09:00:51;22.08;;;15.07;;
52786;SDS011;38661;53.152;5.846;2023-02-28T09:03:18;20.60;;;14.88;;
52786;SDS011;38661;53.152;5.846;2023-02-28T09:05:54;19.15;;;15.02;;
52786;SDS011;38661;53.152;5.846;2023-02-28T09:08:20;21.58;;;15.15;;
52786;SDS011;38661;53.152;5.846;2023-02-28T09:10:46;20.75;;;14.38;;
52786;SDS011;38661;53.152;5.846;2023-02-28T09:13:12;22.55;;;14.68;;
52786;SDS011;38661;53.152;5.846;2023-02-28T09:15:38;21.45;;;15.63;;
52786;SDS011;38661;53.152;5.846;2023-02-28T09:18:04;20.67;;;14.65;;
52786;SDS011;38661;53.152;5.846;2023-02-28T09:20:30;19.73;;;14.13;;
52786;SDS011;38661;53.152;5.846;2023-02-28T09:22:55;18.23;;;13.85;;
52786;SDS011;38661;53.152;5.846;2023-02-28T09:25:21;18.52;;;14.23;;
52786;SDS011;38661;53.152;5.846;2023-02-28T09:27:47;20.95;;;15.02;;
52786;SDS011;38661;53.152;5.846;2023-02-28T09:30:13;18.95;;;13.95;;
52786;SDS011;38661;53.152;5.846;2023-02-28T09:32:39;17.65;;;13.77;;
52786;SDS011;38661;53.152;5.846;2023-02-28T09:35:05;20.55;;;15.38;;
52786;SDS011;38661;53.152;5.846;2023-02-28T09:37:31;24.25;;;16.50;;
52786;SDS011;38661;53.152;5.846;2023-02-28T09:39:57;19.63;;;14.82;;
52786;SDS011;38661;53.152;5.846;2023-02-28T09:42:31;17.60;;;13.55;;
52786;SDS011;38661;53.152;5.846;2023-02-28T09:44:59;17.92;;;12.95;;
52786;SDS011;38661;53.152;5.846;2023-02-28T09:47:35;18.60;;;13.07;;
52786;SDS011;38661;53.152;5.846;2023-02-28T09:52:48;15.77;;;12.00;;
52786;SDS011;38661;53.152;5.846;2023-02-28T09:55:20;14.98;;;11.75;;
52786;SDS011;38661;53.152;5.846;2023-02-28T09:57:53;15.48;;;12.00;;
52786;SDS011;38661;53.152;5.846;2023-02-28T10:00:27;15.50;;;11.90;;
52786;SDS011;38661;53.152;5.846;2023-02-28T10:05:38;14.52;;;11.80;;
52786;SDS011;38661;53.152;5.846;2023-02-28T10:08:13;15.20;;;11.43;;
52786;SDS011;38661;53.152;5.846;2023-02-28T10:10:45;15.98;;;12.38;;
52786;SDS011;38661;53.152;5.846;2023-02-28T10:16:06;16.08;;;11.88;;
52786;SDS011;38661;53.152;5.846;2023-02-28T10:18:46;15.93;;;10.88;;
52786;SDS011;38661;53.152;5.846;2023-02-28T10:21:16;16.73;;;11.32;;
52786;SDS011;38661;53.152;5.846;2023-02-28T10:23:46;14.27;;;10.93;;
52786;SDS011;38661;53.152;5.846;2023-02-28T10:26:14;15.38;;;10.90;;
52786;SDS011;38661;53.152;5.846;2023-02-28T10:28:41;14.48;;;10.32;;
52786;SDS011;38661;53.152;5.846;2023-02-28T10:31:11;14.38;;;9.80;;
52786;SDS011;38661;53.152;5.846;2023-02-28T10:33:43;13.18;;;9.27;;
52786;SDS011;38661;53.152;5.846;2023-02-28T10:36:11;13.00;;;8.45;;
52786;SDS011;38661;53.152;5.846;2023-02-28T10:38:42;14.10;;;8.50;;
52786;SDS011;38661;53.152;5.846;2023-02-28T10:41:16;13.20;;;9.65;;
52786;SDS011;38661;53.152;5.846;2023-02-28T10:44:11;9.85;;;8.25;;
52786;SDS011;38661;53.152;5.846;2023-02-28T10:46:40;11.00;;;7.68;;
52786;SDS011;38661;53.152;5.846;2023-02-28T10:49:14;12.38;;;8.73;;
52786;SDS011;38661;53.152;5.846;2023-02-28T10:51:54;8.85;;;6.32;;
52786;SDS011;38661;53.152;5.846;2023-02-28T10:54:24;13.75;;;7.68;;
52786;SDS011;38661;53.152;5.846;2023-02-28T10:57:12;22.65;;;15.00;;
52786;SDS011;38661;53.152;5.846;2023-02-28T10:59:42;9.05;;;5.47;;
52786;SDS011;38661;53.152;5.846;2023-02-28T11:04:56;7.05;;;4.82;;
52786;SDS011;38661;53.152;5.846;2023-02-28T11:07:22;7.57;;;4.88;;
52786;SDS011;38661;53.152;5.846;2023-02-28T11:09:51;8.25;;;4.75;;
52786;SDS011;38661;53.152;5.846;2023-02-28T11:12:23;7.68;;;3.47;;
52786;SDS011;38661;53.152;5.846;2023-02-28T11:14:54;8.27;;;3.80;;
52786;SDS011;38661;53.152;5.846;2023-02-28T11:17:27;6.82;;;3.65;;
52786;SDS011;38661;53.152;5.846;2023-02-28T11:19:58;6.43;;;4.32;;
52786;SDS011;38661;53.152;5.846;2023-02-28T11:22:32;9.20;;;5.20;;
52786;SDS011;38661;53.152;5.846;2023-02-28T11:25:08;8.30;;;5.55;;
52786;SDS011;38661;53.152;5.846;2023-02-28T11:36:02;7.30;;;4.77;;
52786;SDS011;38661;53.152;5.846;2023-02-28T11:38:34;7.07;;;4.35;;
52786;SDS011;38661;53.152;5.846;2023-02-28T11:46:56;10.90;;;4.97;;
52786;SDS011;38661;53.152;5.846;2023-02-28T11:49:37;4.43;;;3.28;;
52786;SDS011;38661;53.152;5.846;2023-02-28T11:55:24;5.07;;;4.30;;
52786;SDS011;38661;53.152;5.846;2023-02-28T12:04:03;7.63;;;4.45;;
52786;SDS011;38661;53.152;5.846;2023-02-28T12:06:51;6.78;;;4.05;;
52786;SDS011;38661;53.152;5.846;2023-02-28T12:12:10;4.78;;;3.70;;
52786;SDS011;38661;53.152;5.846;2023-02-28T12:17:55;5.22;;;3.42;;
52786;SDS011;38661;53.152;5.846;2023-02-28T12:20:44;7.93;;;4.00;;
52786;SDS011;38661;53.152;5.846;2023-02-28T12:23:43;5.80;;;3.72;;
52786;SDS011;38661;53.152;5.846;2023-02-28T12:29:00;6.25;;;4.25;;
52786;SDS011;38661;53.152;5.846;2023-02-28T12:34:38;6.57;;;4.18;;
52786;SDS011;38661;53.152;5.846;2023-02-28T12:37:09;4.95;;;3.90;;
52786;SDS011;38661;53.152;5.846;2023-02-28T12:39:43;6.15;;;4.05;;
52786;SDS011;38661;53.152;5.846;2023-02-28T12:42:32;4.55;;;3.75;;
52786;SDS011;38661;53.152;5.846;2023-02-28T12:45:12;4.78;;;3.97;;
52786;SDS011;38661;53.152;5.846;2023-02-28T12:47:40;6.43;;;4.07;;
52786;SDS011;38661;53.152;5.846;2023-02-28T12:50:11;6.43;;;4.25;;
52786;SDS011;38661;53.152;5.846;2023-02-28T12:55:19;6.53;;;4.30;;
52786;SDS011;38661;53.152;5.846;2023-02-28T12:58:05;5.38;;;3.75;;
52786;SDS011;38661;53.152;5.846;2023-02-28T13:00:38;8.10;;;4.72;;
52786;SDS011;38661;53.152;5.846;2023-02-28T13:11:43;5.65;;;4.70;;
52786;SDS011;38661;53.152;5.846;2023-02-28T13:14:28;5.90;;;4.60;;
52786;SDS011;38661;53.152;5.846;2023-02-28T13:19:34;8.05;;;5.47;;
52786;SDS011;38661;53.152;5.846;2023-02-28T13:22:03;6.28;;;4.70;;
52786;SDS011;38661;53.152;5.846;2023-02-28T13:24:37;5.97;;;4.88;;
52786;SDS011;38661;53.152;5.846;2023-02-28T13:29:32;5.75;;;4.53;;
52786;SDS011;38661;53.152;5.846;2023-02-28T13:42:31;7.53;;;4.90;;
52786;SDS011;38661;53.152;5.846;2023-02-28T13:45:28;6.80;;;4.82;;
52786;SDS011;38661;53.152;5.846;2023-02-28T13:50:41;10.23;;;6.00;;
52786;SDS011;38661;53.152;5.846;2023-02-28T13:55:45;5.68;;;4.50;;
52786;SDS011;38661;53.152;5.846;2023-02-28T14:01:14;5.75;;;4.50;;
52786;SDS011;38661;53.152;5.846;2023-02-28T14:06:35;13.85;;;9.40;;
52786;SDS011;38661;53.152;5.846;2023-02-28T14:09:45;9.48;;;5.95;;
52786;SDS011;38661;53.152;5.846;2023-02-28T14:11:54;8.13;;;4.85;;
52786;SDS011;38661;53.152;5.846;2023-02-28T14:17:12;8.32;;;5.03;;
52786;SDS011;38661;53.152;5.846;2023-02-28T14:19:41;7.05;;;4.60;;
52786;SDS011;38661;53.152;5.846;2023-02-28T14:34:37;7.10;;;4.30;;
52786;SDS011;38661;53.152;5.846;2023-02-28T14:36:44;7.60;;;4.47;;
52786;SDS011;38661;53.152;5.846;2023-02-28T14:39:14;5.55;;;4.40;;
52786;SDS011;38661;53.152;5.846;2023-02-28T14:41:43;5.93;;;4.40;;
52786;SDS011;38661;53.152;5.846;2023-02-28T14:44:20;6.20;;;4.50;;
52786;SDS011;38661;53.152;5.846;2023-02-28T14:46:49;5.32;;;4.30;;
52786;SDS011;38661;53.152;5.846;2023-02-28T14:52:03;5.80;;;4.53;;
52786;SDS011;38661;53.152;5.846;2023-02-28T14:54:31;5.72;;;4.30;;
52786;SDS011;38661;53.152;5.846;2023-02-28T14:56:57;6.63;;;4.78;;
52786;SDS011;38661;53.152;5.846;2023-02-28T14:59:30;5.57;;;4.78;;
52786;SDS011;38661;53.152;5.846;2023-02-28T15:04:56;5.40;;;4.18;;
52786;SDS011;38661;53.152;5.846;2023-02-28T15:07:24;5.85;;;3.97;;
52786;SDS011;38661;53.152;5.846;2023-02-28T15:15:21;7.93;;;4.85;;
52786;SDS011;38661;53.152;5.846;2023-02-28T15:17:51;5.55;;;4.30;;
52786;SDS011;38661;53.152;5.846;2023-02-28T15:20:21;6.00;;;3.85;;
52786;SDS011;38661;53.152;5.846;2023-02-28T15:22:49;7.50;;;4.13;;
52786;SDS011;38661;53.152;5.846;2023-02-28T15:25:18;7.57;;;4.22;;
52786;SDS011;38661;53.152;5.846;2023-02-28T15:27:50;5.88;;;4.53;;
52786;SDS011;38661;53.152;5.846;2023-02-28T15:30:22;4.88;;;4.00;;
52786;SDS011;38661;53.152;5.846;2023-02-28T15:35:31;5.65;;;4.03;;
52786;SDS011;38661;53.152;5.846;2023-02-28T15:38:02;5.30;;;4.60;;
52786;SDS011;38661;53.152;5.846;2023-02-28T15:40:50;6.53;;;4.45;;
52786;SDS011;38661;53.152;5.846;2023-02-28T15:43:25;7.75;;;6.07;;
52786;SDS011;38661;53.152;5.846;2023-02-28T15:46:01;6.55;;;4.32;;
52786;SDS011;38661;53.152;5.846;2023-02-28T15:48:33;5.43;;;4.00;;
52786;SDS011;38661;53.152;5.846;2023-02-28T15:53:47;7.72;;;3.90;;
52786;SDS011;38661;53.152;5.846;2023-02-28T15:58:55;6.88;;;4.57;;
52786;SDS011;38661;53.152;5.846;2023-02-28T16:01:40;7.13;;;4.03;;
52786;SDS011;38661;53.152;5.846;2023-02-28T16:04:14;5.65;;;3.90;;
52786;SDS011;38661;53.152;5.846;2023-02-28T16:09:23;6.35;;;4.47;;
52786;SDS011;38661;53.152;5.846;2023-02-28T16:11:50;5.18;;;4.10;;
52786;SDS011;38661;53.152;5.846;2023-02-28T16:14:19;6.70;;;4.28;;
52786;SDS011;38661;53.152;5.846;2023-02-28T16:16:52;5.53;;;4.28;;
52786;SDS011;38661;53.152;5.846;2023-02-28T16:19:20;6.55;;;3.78;;
52786;SDS011;38661;53.152;5.846;2023-02-28T16:21:46;4.97;;;3.58;;
52786;SDS011;38661;53.152;5.846;2023-02-28T16:24:12;4.55;;;3.92;;
52786;SDS011;38661;53.152;5.846;2023-02-28T16:26:41;7.07;;;4.20;;
52786;SDS011;38661;53.152;5.846;2023-02-28T16:29:13;5.95;;;3.67;;
52786;SDS011;38661;53.152;5.846;2023-02-28T16:31:44;8.75;;;4.13;;
52786;SDS011;38661;53.152;5.846;2023-02-28T16:34:10;5.55;;;4.18;;
52786;SDS011;38661;53.152;5.846;2023-02-28T16:36:36;6.63;;;4.18;;
52786;SDS011;38661;53.152;5.846;2023-02-28T16:39:01;6.85;;;4.40;;
52786;SDS011;38661;53.152;5.846;2023-02-28T16:41:28;5.65;;;4.13;;
52786;SDS011;38661;53.152;5.846;2023-02-28T16:43:54;5.93;;;3.78;;
52786;SDS011;38661;53.152;5.846;2023-02-28T16:46:30;4.75;;;3.70;;
52786;SDS011;38661;53.152;5.846;2023-02-28T16:48:58;6.07;;;4.13;;
52786;SDS011;38661;53.152;5.846;2023-02-28T16:51:24;5.53;;;3.97;;
52786;SDS011;38661;53.152;5.846;2023-02-28T16:53:50;8.95;;;4.50;;
52786;SDS011;38661;53.152;5.846;2023-02-28T16:56:17;5.35;;;4.55;;
52786;SDS011;38661;53.152;5.846;2023-02-28T16:58:48;8.32;;;4.93;;
52786;SDS011;38661;53.152;5.846;2023-02-28T17:01:15;6.47;;;5.10;;
52786;SDS011;38661;53.152;5.846;2023-02-28T17:03:46;9.88;;;5.72;;
52786;SDS011;38661;53.152;5.846;2023-02-28T17:06:17;7.78;;;6.20;;
52786;SDS011;38661;53.152;5.846;2023-02-28T17:08:47;7.77;;;5.97;;
52786;SDS011;38661;53.152;5.846;2023-02-28T17:11:13;7.97;;;5.97;;
52786;SDS011;38661;53.152;5.846;2023-02-28T17:13:39;7.25;;;6.15;;
52786;SDS011;38661;53.152;5.846;2023-02-28T17:16:05;9.60;;;6.45;;
52786;SDS011;38661;53.152;5.846;2023-02-28T17:18:31;8.98;;;6.60;;
52786;SDS011;38661;53.152;5.846;2023-02-28T17:20:59;7.43;;;6.25;;
52786;SDS011;38661;53.152;5.846;2023-02-28T17:23:25;8.00;;;6.60;;
52786;SDS011;38661;53.152;5.846;2023-02-28T17:25:51;8.68;;;7.35;;
52786;SDS011;38661;53.152;5.846;2023-02-28T17:28:20;10.48;;;6.55;;
52786;SDS011;38661;53.152;5.846;2023-02-28T17:30:47;9.13;;;6.97;;
52786;SDS011;38661;53.152;5.846;2023-02-28T17:33:13;7.95;;;7.05;;
52786;SDS011;38661;53.152;5.846;2023-02-28T17:35:40;10.13;;;6.95;;
52786;SDS011;38661;53.152;5.846;2023-02-28T17:38:11;7.70;;;5.88;;
52786;SDS011;38661;53.152;5.846;2023-02-28T17:40:43;9.88;;;6.88;;